createdAt,value
2023-02-13T00:00:23.578Z,102428.50
2023-02-13T00:03:46.405Z,102429.25
2023-02-13T00:06:49.737Z,102422.41
2023-02-13T00:09:52.537Z,102422.25
2023-02-13T00:12:55.359Z,102432.59
2023-02-13T00:16:00.925Z,102439.87
2023-02-13T00:19:03.824Z,102439.28
2023-02-13T00:22:06.742Z,102435.62
2023-02-13T00:25:09.840Z,102452.31
2023-02-13T00:28:12.744Z,102451.22
2023-02-13T00:31:19.179Z,102450.16
2023-02-13T00:34:23.330Z,102453.37
2023-02-13T00:37:26.502Z,102451.53
2023-02-13T00:40:29.333Z,102448.97
2023-02-13T00:43:32.611Z,102449.59
2023-02-13T00:46:35.583Z,102441.84
2023-02-13T00:49:38.382Z,102446.06
2023-02-13T00:52:41.196Z,102449.12
2023-02-13T00:55:44.902Z,102443.97
2023-02-13T00:58:47.854Z,102436.06
2023-02-13T01:01:51.137Z,102432.59
2023-02-13T01:04:54.043Z,102437.75
2023-02-13T01:07:57.070Z,102435.16
2023-02-13T01:11:00.355Z,102426.81
2023-02-13T01:14:03.462Z,102426.66
2023-02-13T01:17:06.225Z,102431.31
2023-02-13T01:20:11.311Z,102430.28
2023-02-13T01:23:14.177Z,102418.16
2023-02-13T01:26:19.813Z,102418.28
2023-02-13T01:29:22.712Z,102421.91
2023-02-13T01:32:25.748Z,102420.09
2023-02-13T01:35:28.567Z,102422.84
2023-02-13T01:38:31.392Z,102423.31
2023-02-13T01:41:35.701Z,102423.16
2023-02-13T01:44:52.176Z,102421.50
2023-02-13T01:48:11.200Z,102410.56
2023-02-13T01:51:20.364Z,102423.47
2023-02-13T01:54:31.263Z,102417.69
2023-02-13T01:57:36.980Z,102418.75
2023-02-13T02:00:40.404Z,102421.22
2023-02-13T02:03:53.137Z,102417.22
2023-02-13T02:07:00.505Z,102416.97
2023-02-13T02:10:10.256Z,102410.44
2023-02-13T02:13:19.343Z,102413.44
2023-02-13T02:16:22.850Z,102414.06
2023-02-13T02:19:40.761Z,102413.44
2023-02-13T02:22:46.798Z,102415.59
2023-02-13T02:26:04.648Z,102407.38
2023-02-13T02:29:29.852Z,102417.22
2023-02-13T02:32:58.348Z,102415.22
2023-02-13T02:36:33.188Z,102412.16
2023-02-13T02:39:57.786Z,102415.50
2023-02-13T02:43:16.007Z,102411.00
2023-02-13T02:46:37.559Z,102403.81
2023-02-13T02:49:59.926Z,102406.06
2023-02-13T02:53:24.455Z,102412.13
2023-02-13T02:56:34.772Z,102407.56
2023-02-13T02:59:59.257Z,102408.16
2023-02-13T03:03:23.911Z,102404.69
2023-02-13T03:06:35.932Z,102407.69
2023-02-13T03:10:05.565Z,102404.47
2023-02-13T03:13:23.905Z,102406.84
2023-02-13T03:16:45.540Z,102407.44
2023-02-13T03:20:38.734Z,102405.78
2023-02-13T03:24:04.928Z,102415.59
2023-02-13T03:27:44.861Z,102417.44
2023-02-13T03:30:50.304Z,102413.84
2023-02-13T03:34:25.433Z,102409.87
2023-02-13T03:37:52.763Z,102410.59
2023-02-13T03:41:20.683Z,102412.34
2023-02-13T03:45:09.490Z,102403.56
2023-02-13T03:48:35.385Z,102401.00
2023-02-13T03:51:52.342Z,102401.28
2023-02-13T03:55:22.979Z,102403.53
2023-02-13T03:58:53.998Z,102408.47
2023-02-13T04:02:02.862Z,102399.44
2023-02-13T04:05:15.568Z,102391.16
2023-02-13T04:08:18.297Z,102397.03
2023-02-13T04:11:30.633Z,102400.34
2023-02-13T04:15:12.124Z,102402.63
2023-02-13T04:18:20.896Z,102410.75
2023-02-13T04:21:24.274Z,102410.09
2023-02-13T04:24:27.840Z,102410.53
2023-02-13T04:27:30.464Z,102406.78
2023-02-13T04:30:33.972Z,102408.31
2023-02-13T04:33:36.558Z,102400.69
2023-02-13T04:36:39.834Z,102402.50
2023-02-13T04:39:42.449Z,102401.75
2023-02-13T04:42:48.542Z,102397.34
2023-02-13T04:45:51.704Z,102388.56
2023-02-13T04:48:54.891Z,102394.66
2023-02-13T04:51:57.524Z,102389.75
2023-02-13T04:55:00.684Z,102382.97
2023-02-13T04:58:03.183Z,102390.41
2023-02-13T05:01:15.252Z,102382.03
2023-02-13T05:04:17.900Z,102383.44
2023-02-13T05:07:21.056Z,102388.09
2023-02-13T05:10:23.607Z,102383.72
2023-02-13T05:13:26.849Z,102384.12
2023-02-13T05:16:29.486Z,102377.91
2023-02-13T05:19:32.585Z,102377.12
2023-02-13T05:22:53.713Z,102372.00
2023-02-13T05:25:56.791Z,102360.06
2023-02-13T05:29:17.917Z,102363.03
2023-02-13T05:32:21.007Z,102366.97
2023-02-13T05:35:24.894Z,102369.69
2023-02-13T05:38:28.014Z,102356.09
2023-02-13T05:41:30.676Z,102361.25
2023-02-13T05:44:33.861Z,102362.63
2023-02-13T05:47:36.965Z,102360.38
2023-02-13T05:50:43.553Z,102376.22
2023-02-13T05:53:46.136Z,102373.53
2023-02-13T05:56:49.284Z,102366.00
2023-02-13T05:59:51.789Z,102379.13
2023-02-13T06:02:54.885Z,102385.00
2023-02-13T06:05:58.302Z,102379.13
2023-02-13T06:09:01.082Z,102382.87
2023-02-13T06:12:04.161Z,102388.19
2023-02-13T06:15:07.664Z,102406.25
2023-02-13T06:18:11.271Z,102421.41
2023-02-13T06:21:14.198Z,102414.97
2023-02-13T06:24:17.144Z,102411.56
2023-02-13T06:27:20.030Z,102406.59
2023-02-13T06:30:23.120Z,102413.00
2023-02-13T06:33:26.102Z,102421.16
2023-02-13T06:36:29.080Z,102419.66
2023-02-13T06:39:31.868Z,102414.31
2023-02-13T06:42:34.750Z,102428.91
2023-02-13T06:45:38.277Z,102425.22
2023-02-13T06:48:40.953Z,102426.72
2023-02-13T06:51:44.098Z,102417.50
2023-02-13T06:54:48.210Z,102422.41
2023-02-13T06:57:51.149Z,102418.16
2023-02-13T07:00:54.129Z,102419.69
2023-02-13T07:03:57.657Z,102415.69
2023-02-13T07:07:00.434Z,102427.22
2023-02-13T07:10:04.859Z,102426.78
2023-02-13T07:13:08.466Z,102429.69
2023-02-13T07:16:11.556Z,102430.81
2023-02-13T07:19:14.724Z,102428.88
2023-02-13T07:22:17.476Z,102424.47
2023-02-13T07:25:20.313Z,102433.91
2023-02-13T07:28:23.131Z,102434.53
2023-02-13T07:31:26.093Z,102431.81
2023-02-13T07:34:29.047Z,102433.94
2023-02-13T07:37:32.018Z,102421.97
2023-02-13T07:40:34.822Z,102419.38
2023-02-13T07:43:37.645Z,102436.25
2023-02-13T07:46:40.514Z,102430.31
2023-02-13T07:49:44.653Z,102440.91
2023-02-13T07:52:58.262Z,102435.53
2023-02-13T07:56:09.133Z,102452.81
2023-02-13T07:59:12.044Z,102438.66
2023-02-13T08:02:16.340Z,102443.09
2023-02-13T08:05:19.604Z,102447.63
2023-02-13T08:08:22.327Z,102446.75
2023-02-13T08:11:51.608Z,102435.47
2023-02-13T08:14:54.282Z,102425.44
2023-02-13T08:17:57.692Z,102417.25
2023-02-13T08:21:02.568Z,102405.44
2023-02-13T08:24:06.923Z,102404.62
2023-02-13T08:27:14.661Z,102408.94
2023-02-13T08:30:18.236Z,102409.72
2023-02-13T08:33:20.903Z,102396.16
2023-02-13T08:36:24.842Z,102390.56
2023-02-13T08:39:27.500Z,102395.19
2023-02-13T08:42:31.424Z,102384.66
2023-02-13T08:45:36.197Z,102385.28
2023-02-13T08:48:39.369Z,102396.22
2023-02-13T08:51:42.050Z,102387.34
2023-02-13T08:54:45.291Z,102375.72
2023-02-13T08:57:48.051Z,102386.63
2023-02-13T09:00:51.300Z,102389.50
2023-02-13T09:03:54.152Z,102392.47
2023-02-13T09:06:57.328Z,102381.44
2023-02-13T09:09:59.996Z,102379.25
2023-02-13T09:13:05.951Z,102377.81
2023-02-13T09:16:15.247Z,102377.81
2023-02-13T09:19:22.766Z,102386.66
2023-02-13T09:22:25.384Z,102366.91
2023-02-13T09:25:28.620Z,102370.00
2023-02-13T09:28:32.429Z,102380.44
2023-02-13T09:31:35.729Z,102362.53
2023-02-13T09:34:38.435Z,102372.50
2023-02-13T09:37:41.523Z,102366.97
2023-02-13T09:41:03.202Z,102363.66
2023-02-13T09:44:35.059Z,102353.16
2023-02-13T09:47:41.404Z,102356.34
2023-02-13T09:50:44.602Z,102355.06
2023-02-13T09:54:11.169Z,102353.00
2023-02-13T09:57:25.495Z,102346.22
2023-02-13T10:00:39.447Z,102357.25
2023-02-13T10:03:48.211Z,102348.25
2023-02-13T10:07:16.330Z,102338.94
2023-02-13T10:10:38.170Z,102340.09
2023-02-13T10:13:49.582Z,102326.19
2023-02-13T10:17:05.478Z,102322.28
2023-02-13T10:20:36.622Z,102325.88
2023-02-13T10:23:50.320Z,102327.66
2023-02-13T10:26:55.052Z,102321.56
2023-02-13T10:30:07.120Z,102328.09
2023-02-13T10:33:21.060Z,102324.00
2023-02-13T10:36:33.941Z,102314.00
2023-02-13T10:39:36.631Z,102317.75
2023-02-13T10:42:46.521Z,102305.03
2023-02-13T10:45:52.250Z,102306.78
2023-02-13T10:49:29.722Z,102304.16
2023-02-13T10:52:50.571Z,102301.47
2023-02-13T10:56:30.794Z,102297.72
2023-02-13T11:00:01.249Z,102287.91
2023-02-13T11:03:04.905Z,102286.78
2023-02-13T11:06:14.525Z,102284.88
2023-02-13T11:09:18.164Z,102275.75
2023-02-13T11:12:32.831Z,102278.59
2023-02-13T11:15:37.170Z,102275.56
2023-02-13T11:18:50.337Z,102273.25
2023-02-13T11:21:57.766Z,102270.16
2023-02-13T11:25:17.404Z,102257.03
2023-02-13T11:28:21.717Z,102263.31
2023-02-13T11:31:31.530Z,102257.03
2023-02-13T11:34:35.197Z,102254.63
2023-02-13T11:37:37.604Z,102254.59
2023-02-13T11:40:44.494Z,102250.50
2023-02-13T11:44:01.393Z,102241.84
2023-02-13T11:47:04.867Z,102241.34
2023-02-13T11:50:25.967Z,102226.47
2023-02-13T11:53:36.537Z,102232.44
2023-02-13T11:57:28.711Z,102227.44
2023-02-13T12:00:42.909Z,102225.72
2023-02-13T12:04:17.373Z,102230.03
2023-02-13T12:07:30.020Z,102218.00
2023-02-13T12:10:37.187Z,102216.41
2023-02-13T12:13:40.338Z,102218.28
2023-02-13T12:16:50.984Z,102211.38
2023-02-13T12:19:55.701Z,102211.09
2023-02-13T12:23:12.572Z,102213.03
2023-02-13T12:26:22.734Z,102204.34
2023-02-13T12:29:25.601Z,102202.87
2023-02-13T12:32:46.592Z,102202.69
2023-02-13T12:36:07.825Z,102194.88
2023-02-13T12:39:37.566Z,102193.00
2023-02-13T12:42:48.240Z,102180.78
2023-02-13T12:46:06.891Z,102170.88
2023-02-13T12:49:31.528Z,102164.66
2023-02-13T12:52:46.036Z,102160.72
2023-02-13T12:56:07.729Z,102152.75
2023-02-13T12:59:51.171Z,102156.53
2023-02-13T13:02:59.796Z,102152.09
2023-02-13T13:06:40.963Z,102137.69
2023-02-13T13:09:58.002Z,102130.09
2023-02-13T13:13:27.935Z,102136.78
2023-02-13T13:16:45.300Z,102127.63
2023-02-13T13:20:23.169Z,102120.41
2023-02-13T13:23:52.868Z,102132.75
2023-02-13T13:26:58.130Z,102132.75
2023-02-13T13:30:13.367Z,102116.12
2023-02-13T13:33:21.491Z,102119.75
2023-02-13T13:36:41.718Z,102130.06
2023-02-13T13:39:57.322Z,102120.69
2023-02-13T13:43:13.510Z,102127.88
2023-02-13T13:46:32.784Z,102126.16
2023-02-13T13:49:50.046Z,102117.87
2023-02-13T13:53:12.119Z,102131.53
2023-02-13T13:56:15.328Z,102119.22
2023-02-13T13:59:33.822Z,102122.38
2023-02-13T14:02:59.030Z,102111.78
2023-02-13T14:06:09.442Z,102125.06
2023-02-13T14:09:38.201Z,102124.78
2023-02-13T14:13:02.556Z,102130.09
2023-02-13T14:16:10.077Z,102140.81
2023-02-13T14:19:43.642Z,102132.66
2023-02-13T14:22:46.270Z,102139.28
2023-02-13T14:25:49.749Z,102137.06
2023-02-13T14:28:52.110Z,102138.31
2023-02-13T14:32:04.320Z,102138.16
2023-02-13T14:35:12.981Z,102153.62
2023-02-13T14:38:25.392Z,102150.91
2023-02-13T14:41:46.376Z,102145.56
2023-02-13T14:44:52.812Z,102148.63
2023-02-13T14:47:58.080Z,102144.94
2023-02-13T14:51:06.001Z,102147.56
2023-02-13T14:54:29.904Z,102149.63
2023-02-13T14:57:37.647Z,102152.34
2023-02-13T15:00:52.565Z,102141.63
2023-02-13T15:04:05.553Z,102152.84
2023-02-13T15:07:17.936Z,102156.63
2023-02-13T15:10:44.612Z,102148.47
2023-02-13T15:13:47.120Z,102148.47
2023-02-13T15:16:55.800Z,102140.97
2023-02-13T15:20:29.143Z,102157.66
2023-02-13T15:23:35.260Z,102156.78
2023-02-13T15:26:38.020Z,102162.00
2023-02-13T15:29:54.302Z,102161.47
2023-02-13T15:33:02.945Z,102166.44
2023-02-13T15:36:06.608Z,102172.81
2023-02-13T15:39:18.948Z,102164.00
2023-02-13T15:42:22.411Z,102159.22
2023-02-13T15:45:27.535Z,102145.09
2023-02-13T15:48:32.271Z,102147.84
2023-02-13T15:51:35.349Z,102152.41
2023-02-13T15:54:49.388Z,102151.81
2023-02-13T15:57:55.047Z,102149.34
2023-02-13T16:01:04.798Z,102150.22
2023-02-13T16:04:12.438Z,102156.22
2023-02-13T16:07:15.475Z,102151.81
2023-02-13T16:10:27.805Z,102153.78
2023-02-13T16:13:30.719Z,102161.47
2023-02-13T16:16:43.031Z,102157.62
2023-02-13T16:19:55.710Z,102149.47
2023-02-13T16:23:13.942Z,102161.47
2023-02-13T16:26:16.897Z,102160.22
2023-02-13T16:29:26.312Z,102157.38
2023-02-13T16:32:34.890Z,102158.50
2023-02-13T16:35:40.968Z,102158.94
2023-02-13T16:38:45.797Z,102147.94
2023-02-13T16:41:48.812Z,102148.53
2023-02-13T16:45:11.613Z,102154.50
2023-02-13T16:48:15.702Z,102151.22
2023-02-13T16:51:30.396Z,102148.50
2023-02-13T16:54:56.984Z,102139.19
2023-02-13T16:58:05.206Z,102151.56
2023-02-13T17:01:15.811Z,102144.88
2023-02-13T17:04:24.948Z,102152.66
2023-02-13T17:07:30.373Z,102151.41
2023-02-13T17:10:35.811Z,102143.38
2023-02-13T17:13:59.528Z,102139.75
2023-02-13T17:17:10.246Z,102125.56
2023-02-13T17:20:18.788Z,102129.84
2023-02-13T17:23:25.184Z,102129.84
2023-02-13T17:26:29.800Z,102119.72
2023-02-13T17:29:35.352Z,102121.22
2023-02-13T17:32:42.602Z,102122.31
2023-02-13T17:35:47.649Z,102122.19
2023-02-13T17:38:52.252Z,102130.56
2023-02-13T17:41:56.334Z,102118.81
2023-02-13T17:45:01.024Z,102107.91
2023-02-13T17:48:06.069Z,102111.97
2023-02-13T17:51:14.089Z,102106.28
2023-02-13T17:54:16.930Z,102101.88
2023-02-13T17:57:20.143Z,102095.53
2023-02-13T18:00:24.653Z,102095.97
2023-02-13T18:03:27.803Z,102090.28
2023-02-13T18:06:30.594Z,102092.53
2023-02-13T18:09:33.654Z,102102.34
2023-02-13T18:12:36.534Z,102088.56
2023-02-13T18:15:42.556Z,102079.50
2023-02-13T18:18:45.467Z,102078.06
2023-02-13T18:21:48.309Z,102083.31
2023-02-13T18:24:51.698Z,102067.41
2023-02-13T18:27:55.367Z,102075.97
2023-02-13T18:30:58.525Z,102080.78
2023-02-13T18:34:01.694Z,102078.75
2023-02-13T18:37:05.942Z,102079.50
2023-02-13T18:40:09.988Z,102067.22
2023-02-13T18:43:12.773Z,102077.22
2023-02-13T18:46:15.660Z,102069.44
2023-02-13T18:49:18.552Z,102064.78
2023-02-13T18:52:21.404Z,102060.53
2023-02-13T18:55:24.234Z,102065.66
2023-02-13T18:58:27.143Z,102061.88
2023-02-13T19:01:30.108Z,102066.59
2023-02-13T19:04:35.155Z,102068.03
2023-02-13T19:07:38.038Z,102061.03
2023-02-13T19:10:41.010Z,102055.84
2023-02-13T19:13:44.600Z,102052.75
2023-02-13T19:16:47.449Z,102053.81
2023-02-13T19:19:50.530Z,102056.66
2023-02-13T19:22:55.186Z,102062.41
2023-02-13T19:25:59.329Z,102063.03
2023-02-13T19:29:02.228Z,102061.38
2023-02-13T19:32:05.286Z,102068.09
2023-02-13T19:35:08.390Z,102062.66
2023-02-13T19:38:11.385Z,102060.28
2023-02-13T19:41:17.275Z,102055.00
2023-02-13T19:44:20.123Z,102056.28
2023-02-13T19:47:23.022Z,102054.25
2023-02-13T19:50:25.843Z,102063.16
2023-02-13T19:53:28.756Z,102056.44
2023-02-13T19:56:33.332Z,102053.87
2023-02-13T19:59:36.243Z,102047.09
2023-02-13T20:02:39.044Z,102047.00
2023-02-13T20:05:41.963Z,102045.31
2023-02-13T20:08:45.119Z,102037.59
2023-02-13T20:11:48.098Z,102042.63
2023-02-13T20:14:50.969Z,102037.97
2023-02-13T20:17:53.801Z,102031.88
2023-02-13T20:20:57.179Z,102025.81
2023-02-13T20:24:00.349Z,102028.03
2023-02-13T20:27:03.183Z,102032.19
2023-02-13T20:30:07.858Z,102026.44
2023-02-13T20:33:11.133Z,102017.78
2023-02-13T20:36:16.937Z,102014.03
2023-02-13T20:39:19.707Z,102032.06
2023-02-13T20:42:22.554Z,102035.81
2023-02-13T20:45:25.377Z,102027.03
2023-02-13T20:48:28.527Z,102025.72
2023-02-13T20:51:31.548Z,102028.56
2023-02-13T20:54:34.764Z,102025.50
2023-02-13T20:57:37.731Z,102021.84
2023-02-13T21:00:40.710Z,102009.16
2023-02-13T21:03:44.660Z,102020.56
2023-02-13T21:06:48.052Z,102031.22
2023-02-13T21:09:50.859Z,102022.00
2023-02-13T21:12:53.701Z,102027.81
2023-02-13T21:16:04.775Z,102024.44
2023-02-13T21:19:12.496Z,102020.31
2023-02-13T21:22:15.307Z,102025.22
2023-02-13T21:25:18.827Z,102024.97
2023-02-13T21:28:21.792Z,102027.34
2023-02-13T21:31:40.683Z,102017.59
2023-02-13T21:34:43.711Z,102026.03
2023-02-13T21:37:46.656Z,102026.78
2023-02-13T21:40:49.499Z,102032.50
2023-02-13T21:43:52.837Z,102038.72
2023-02-13T21:46:56.507Z,102025.50
2023-02-13T21:50:00.570Z,102041.56
2023-02-13T21:53:03.618Z,102042.59
2023-02-13T21:56:09.198Z,102047.37
2023-02-13T21:59:16.842Z,102047.25
2023-02-13T22:02:19.808Z,102048.16
2023-02-13T22:05:23.016Z,102048.28
2023-02-13T22:08:25.565Z,102068.72
2023-02-13T22:11:29.453Z,102061.09
2023-02-13T22:14:32.031Z,102057.59
2023-02-13T22:17:36.769Z,102065.91
2023-02-13T22:20:39.971Z,102054.50
2023-02-13T22:23:44.702Z,102048.00
2023-02-13T22:26:47.341Z,102056.31
2023-02-13T22:29:53.449Z,102049.03
2023-02-13T22:32:57.017Z,102049.69
2023-02-13T22:36:00.639Z,102049.44
2023-02-13T22:39:03.220Z,102039.63
2023-02-13T22:42:07.262Z,102038.19
2023-02-13T22:45:09.913Z,102036.34
2023-02-13T22:48:13.040Z,102038.94
2023-02-13T22:51:18.662Z,102038.19
2023-02-13T22:54:21.790Z,102033.91
2023-02-13T22:57:24.425Z,102028.72
2023-02-13T23:00:29.081Z,102033.78
2023-02-13T23:03:32.995Z,102029.13
2023-02-13T23:06:36.196Z,102033.37
2023-02-13T23:09:38.881Z,102029.63
2023-02-13T23:12:45.666Z,102029.22
2023-02-13T23:15:50.283Z,102032.47
2023-02-13T23:18:55.622Z,102036.84
2023-02-13T23:21:59.328Z,102040.50
2023-02-13T23:25:05.246Z,102039.56
2023-02-13T23:28:08.912Z,102037.37
2023-02-13T23:31:12.128Z,102030.22
2023-02-13T23:34:14.811Z,102025.72
2023-02-13T23:37:18.545Z,102010.81
2023-02-13T23:40:21.167Z,102007.22
2023-02-13T23:43:24.253Z,101999.59
2023-02-13T23:46:27.257Z,101999.72
2023-02-13T23:49:30.690Z,102004.13
2023-02-13T23:52:33.215Z,102004.75
2023-02-13T23:55:36.452Z,101996.72
2023-02-13T23:58:39.031Z,101999.31
